Time,TemperatureF,DewpointF,PressureIn,WindDirection,WindDirectionDegrees,WindSpeedMPH,WindSpeedGustMPH,Humidity,HourlyPrecipIn,Conditions,Clouds,dailyrainin,SolarRadiationWatts/m^2,SoftwareType,DateUTC
2013-05-26 00:01:00,51.0,38.0,-100.00,SSE,157,10.0,16.0,62,0.00,,,0.00,0.000000,,2013-05-26 07:01:00,
2013-05-26 00:22:00,50.0,33.0,-100.00,SSE,150,10.0,18.0,51,0.00,,,0.00,0.000000,,2013-05-26 07:22:00,
2013-05-26 00:32:00,50.0,33.0,-100.00,SSE,150,10.0,18.0,51,0.00,,,0.00,0.000000,,2013-05-26 07:32:00,
2013-05-26 00:42:00,50.0,33.0,-100.00,SSE,150,10.0,18.0,51,0.00,,,0.00,0.000000,,2013-05-26 07:42:00,
2013-05-26 00:52:00,50.0,33.0,-100.00,SSE,150,10.0,18.0,51,0.00,,,0.00,0.000000,,2013-05-26 07:52:00,
2013-05-26 01:01:00,50.0,33.0,-100.00,SSE,150,10.0,18.0,51,0.00,,,0.00,0.000000,,2013-05-26 08:01:00,
2013-05-26 01:22:00,50.0,33.0,-100.00,SE,141,11.0,19.0,52,0.00,,,0.00,0.000000,,2013-05-26 08:22:00,
2013-05-26 01:32:00,50.0,33.0,-100.00,SE,141,11.0,19.0,52,0.00,,,0.00,0.000000,,2013-05-26 08:32:00,
2013-05-26 01:42:00,50.0,33.0,-100.00,SE,141,11.0,19.0,52,0.00,,,0.00,0.000000,,2013-05-26 08:42:00,
2013-05-26 01:53:00,50.0,33.0,-100.00,SE,141,11.0,19.0,52,0.00,,,0.00,0.000000,,2013-05-26 08:53:00,
2013-05-26 02:01:00,50.0,33.0,-100.00,SE,141,11.0,19.0,52,0.00,,,0.00,0.000000,,2013-05-26 09:01:00,
2013-05-26 02:02:00,50.0,33.0,-100.00,SE,143,9.0,18.0,52,0.00,,,0.00,0.000000,,2013-05-26 09:02:00,
2013-05-26 02:22:00,50.0,33.0,-100.00,SE,143,9.0,18.0,52,0.00,,,0.00,0.000000,,2013-05-26 09:22:00,
2013-05-26 02:33:00,50.0,33.0,-100.00,SE,143,9.0,18.0,52,0.00,,,0.00,0.000000,,2013-05-26 09:33:00,
2013-05-26 02:43:00,50.0,33.0,-100.00,SE,143,9.0,18.0,52,0.00,,,0.00,0.000000,,2013-05-26 09:43:00,
2013-05-26 02:53:00,50.0,33.0,-100.00,SE,143,9.0,18.0,52,0.00,,,0.00,0.000000,,2013-05-26 09:53:00,
2013-05-26 03:02:00,49.0,32.0,-100.00,SSE,148,8.0,13.0,52,0.00,,,0.00,0.000000,,2013-05-26 10:02:00,
2013-05-26 03:23:00,49.0,32.0,-100.00,SSE,148,8.0,13.0,52,0.00,,,0.00,0.000000,,2013-05-26 10:23:00,
2013-05-26 03:33:00,49.0,32.0,-100.00,SSE,148,8.0,13.0,52,0.00,,,0.00,0.000000,,2013-05-26 10:33:00,
2013-05-26 03:42:00,49.0,32.0,-100.00,SSE,148,8.0,13.0,52,0.00,,,0.00,0.000000,,2013-05-26 10:42:00,
2013-05-26 03:52:00,49.0,32.0,-100.00,SSE,148,8.0,13.0,52,0.00,,,0.00,0.000000,,2013-05-26 10:52:00,
2013-05-26 04:22:00,47.0,30.0,-100.00,SSE,150,5.0,11.0,51,0.00,,,0.00,0.000000,,2013-05-26 11:22:00,
2013-05-26 04:32:00,47.0,30.0,-100.00,SSE,150,5.0,11.0,51,0.00,,,0.00,0.000000,,2013-05-26 11:32:00,
2013-05-26 04:42:00,47.0,30.0,-100.00,SSE,150,5.0,11.0,51,0.00,,,0.00,0.000000,,2013-05-26 11:42:00,
2013-05-26 04:52:00,47.0,30.0,-100.00,SSE,150,5.0,11.0,51,0.00,,,0.00,0.000000,,2013-05-26 11:52:00,
2013-05-26 05:01:00,47.0,30.0,-100.00,SSE,150,5.0,11.0,51,0.00,,,0.00,0.000000,,2013-05-26 12:01:00,
2013-05-26 05:02:00,46.0,24.0,-100.00,WNW,285,2.0,10.0,41,0.00,,,0.00,0.000000,,2013-05-26 12:02:00,
2013-05-26 05:22:00,46.0,24.0,-100.00,WNW,285,2.0,10.0,41,0.00,,,0.00,0.000000,,2013-05-26 12:22:00,
2013-05-26 05:32:00,46.0,24.0,-100.00,WNW,285,2.0,10.0,41,0.00,,,0.00,0.000000,,2013-05-26 12:32:00,
2013-05-26 05:42:00,46.0,24.0,-100.00,WNW,285,2.0,10.0,41,0.00,,,0.00,0.000000,,2013-05-26 12:42:00,
2013-05-26 05:52:00,46.0,24.0,-100.00,WNW,285,2.0,10.0,41,0.00,,,0.00,0.000000,,2013-05-26 12:52:00,
2013-05-26 06:22:00,45.0,25.0,-100.00,SE,129,5.0,7.0,45,0.00,,,0.00,4.000000,,2013-05-26 13:22:00,
2013-05-26 06:32:00,45.0,25.0,-100.00,SE,129,5.0,7.0,45,0.00,,,0.00,4.000000,,2013-05-26 13:32:00,
2013-05-26 06:42:00,45.0,25.0,-100.00,SE,129,5.0,7.0,45,0.00,,,0.00,4.000000,,2013-05-26 13:42:00,
2013-05-26 06:52:00,45.0,25.0,-100.00,SE,129,5.0,7.0,45,0.00,,,0.00,4.000000,,2013-05-26 13:52:00,
2013-05-26 07:01:00,45.0,25.0,-100.00,SE,129,5.0,7.0,45,0.00,,,0.00,4.000000,,2013-05-26 14:01:00,
2013-05-26 07:22:00,53.0,25.0,-100.00,ESE,113,4.0,7.0,34,0.00,,,0.00,99.000000,,2013-05-26 14:22:00,
2013-05-26 07:32:00,53.0,25.0,-100.00,ESE,113,4.0,7.0,34,0.00,,,0.00,99.000000,,2013-05-26 14:32:00,
2013-05-26 07:42:00,53.0,25.0,-100.00,ESE,113,4.0,7.0,34,0.00,,,0.00,99.000000,,2013-05-26 14:42:00,
2013-05-26 07:52:00,53.0,25.0,-100.00,ESE,113,4.0,7.0,34,0.00,,,0.00,99.000000,,2013-05-26 14:52:00,
2013-05-26 08:01:00,53.0,25.0,-100.00,ESE,113,4.0,7.0,34,0.00,,,0.00,99.000000,,2013-05-26 15:01:00,
2013-05-26 08:02:00,59.0,27.0,-100.00,SE,124,6.0,11.0,29,0.00,,,0.00,327.000000,,2013-05-26 15:02:00,
2013-05-26 08:22:00,59.0,27.0,-100.00,SE,124,6.0,11.0,29,0.00,,,0.00,327.000000,,2013-05-26 15:22:00,
2013-05-26 08:33:00,59.0,27.0,-100.00,SE,124,6.0,11.0,29,0.00,,,0.00,327.000000,,2013-05-26 15:33:00,
2013-05-26 08:43:00,59.0,27.0,-100.00,SE,124,6.0,11.0,29,0.00,,,0.00,327.000000,,2013-05-26 15:43:00,
2013-05-26 08:53:00,59.0,27.0,-100.00,SE,124,6.0,11.0,29,0.00,,,0.00,327.000000,,2013-05-26 15:53:00,
2013-05-26 09:02:00,62.0,31.0,-100.00,SE,146,7.0,14.0,31,0.00,,,0.00,573.000000,,2013-05-26 16:02:00,
2013-05-26 09:23:00,62.0,31.0,-100.00,SE,146,7.0,14.0,31,0.00,,,0.00,573.000000,,2013-05-26 16:23:00,
2013-05-26 09:33:00,62.0,31.0,-100.00,SE,146,7.0,14.0,31,0.00,,,0.00,573.000000,,2013-05-26 16:33:00,
2013-05-26 09:42:00,62.0,31.0,-100.00,SE,146,7.0,14.0,31,0.00,,,0.00,573.000000,,2013-05-26 16:42:00,
2013-05-26 09:53:00,62.0,31.0,-100.00,SE,146,7.0,14.0,31,0.00,,,0.00,573.000000,,2013-05-26 16:53:00,
2013-05-26 10:23:00,63.0,33.0,-100.00,SE,133,8.0,14.0,33,0.00,,,0.00,799.000000,,2013-05-26 17:23:00,
2013-05-26 10:32:00,63.0,33.0,-100.00,SE,133,8.0,14.0,33,0.00,,,0.00,799.000000,,2013-05-26 17:32:00,
2013-05-26 10:42:00,63.0,33.0,-100.00,SE,133,8.0,14.0,33,0.00,,,0.00,799.000000,,2013-05-26 17:42:00,
2013-05-26 10:52:00,63.0,33.0,-100.00,SE,133,8.0,14.0,33,0.00,,,0.00,799.000000,,2013-05-26 17:52:00,
2013-05-26 11:01:00,63.0,33.0,-100.00,SE,133,8.0,14.0,33,0.00,,,0.00,799.000000,,2013-05-26 18:01:00,
2013-05-26 11:22:00,66.0,35.0,-100.00,SE,131,7.0,14.0,32,0.00,,,0.00,981.000000,,2013-05-26 18:22:00,
2013-05-26 11:32:00,66.0,35.0,-100.00,SE,131,7.0,14.0,32,0.00,,,0.00,981.000000,,2013-05-26 18:32:00,
2013-05-26 11:42:00,66.0,35.0,-100.00,SE,131,7.0,14.0,32,0.00,,,0.00,981.000000,,2013-05-26 18:42:00,
2013-05-26 11:52:00,66.0,35.0,-100.00,SE,131,7.0,14.0,32,0.00,,,0.00,981.000000,,2013-05-26 18:52:00,
2013-05-26 12:01:00,66.0,35.0,-100.00,SE,131,7.0,14.0,32,0.00,,,0.00,981.000000,,2013-05-26 19:01:00,
2013-05-26 12:22:00,65.0,39.0,-100.00,SSE,149,9.0,16.0,38,0.00,,,0.00,1109.000000,,2013-05-26 19:22:00,
2013-05-26 12:32:00,65.0,39.0,-100.00,SSE,149,9.0,16.0,38,0.00,,,0.00,1109.000000,,2013-05-26 19:32:00,
2013-05-26 12:42:00,65.0,39.0,-100.00,SSE,149,9.0,16.0,38,0.00,,,0.00,1109.000000,,2013-05-26 19:42:00,
2013-05-26 12:52:00,65.0,39.0,-100.00,SSE,149,9.0,16.0,38,0.00,,,0.00,1109.000000,,2013-05-26 19:52:00,
2013-05-26 13:01:00,65.0,39.0,-100.00,SSE,149,9.0,16.0,38,0.00,,,0.00,1109.000000,,2013-05-26 20:01:00,
2013-05-26 13:22:00,63.0,38.0,-100.00,SE,144,11.0,18.0,39,0.00,,,0.00,1165.000000,,2013-05-26 20:22:00,
2013-05-26 13:32:00,63.0,38.0,-100.00,SE,144,11.0,18.0,39,0.00,,,0.00,1165.000000,,2013-05-26 20:32:00,
2013-05-26 13:42:00,63.0,38.0,-100.00,SE,144,11.0,18.0,39,0.00,,,0.00,1165.000000,,2013-05-26 20:42:00,
2013-05-26 13:52:00,63.0,38.0,-100.00,SE,144,11.0,18.0,39,0.00,,,0.00,1165.000000,,2013-05-26 20:52:00,
2013-05-26 14:01:00,63.0,38.0,-100.00,SE,144,11.0,18.0,39,0.00,,,0.00,1165.000000,,2013-05-26 21:01:00,
2013-05-26 14:02:00,62.0,39.0,-100.00,SSE,163,14.0,22.0,43,0.00,,,0.00,1162.000000,,2013-05-26 21:02:00,
2013-05-26 14:22:00,62.0,39.0,-100.00,SSE,163,14.0,22.0,43,0.00,,,0.00,1162.000000,,2013-05-26 21:22:00,
2013-05-26 14:33:00,62.0,39.0,-100.00,SSE,163,14.0,22.0,43,0.00,,,0.00,1162.000000,,2013-05-26 21:33:00,
2013-05-26 14:43:00,62.0,39.0,-100.00,SSE,163,14.0,22.0,43,0.00,,,0.00,1162.000000,,2013-05-26 21:43:00,
2013-05-26 14:53:00,62.0,39.0,-100.00,SSE,163,14.0,22.0,43,0.00,,,0.00,1162.000000,,2013-05-26 21:53:00,
2013-05-26 15:02:00,63.0,40.0,-100.00,SE,139,13.0,22.0,42,0.00,,,0.00,1101.000000,,2013-05-26 22:02:00,
2013-05-26 15:23:00,63.0,40.0,-100.00,SE,139,13.0,22.0,42,0.00,,,0.00,1101.000000,,2013-05-26 22:23:00,
2013-05-26 15:33:00,63.0,40.0,-100.00,SE,139,13.0,22.0,42,0.00,,,0.00,1101.000000,,2013-05-26 22:33:00,
2013-05-26 15:42:00,63.0,40.0,-100.00,SE,139,13.0,22.0,42,0.00,,,0.00,1101.000000,,2013-05-26 22:42:00,
2013-05-26 15:53:00,63.0,40.0,-100.00,SE,139,13.0,22.0,42,0.00,,,0.00,1101.000000,,2013-05-26 22:53:00,
2013-05-26 16:02:00,61.0,41.0,-100.00,SSE,159,14.0,22.0,47,0.00,,,-99.99,969.000000,,2013-05-26 23:02:00,
2013-05-26 16:22:00,61.0,41.0,-100.00,SSE,159,14.0,22.0,47,0.00,,,-99.99,969.000000,,2013-05-26 23:22:00,
2013-05-26 16:32:00,61.0,41.0,-100.00,SSE,159,14.0,22.0,47,0.00,,,-99.99,969.000000,,2013-05-26 23:32:00,
2013-05-26 16:43:00,61.0,41.0,-100.00,SSE,159,14.0,22.0,47,0.00,,,-99.99,969.000000,,2013-05-26 23:43:00,
2013-05-26 16:52:00,61.0,41.0,-100.00,SSE,159,14.0,22.0,47,0.00,,,-99.99,969.000000,,2013-05-26 23:52:00,
2013-05-26 17:22:00,61.0,43.0,-100.00,SE,132,12.0,26.0,51,0.00,,,0.00,773.000000,,2013-05-27 00:22:00,
2013-05-26 17:32:00,61.0,43.0,-100.00,SE,132,12.0,26.0,51,0.00,,,0.00,773.000000,,2013-05-27 00:32:00,
2013-05-26 17:42:00,61.0,43.0,-100.00,SE,132,12.0,26.0,51,0.00,,,0.00,773.000000,,2013-05-27 00:42:00,
2013-05-26 17:52:00,61.0,43.0,-100.00,SE,132,12.0,26.0,51,0.00,,,0.00,773.000000,,2013-05-27 00:52:00,
2013-05-26 18:01:00,61.0,43.0,-100.00,SE,132,12.0,26.0,51,0.00,,,0.00,773.000000,,2013-05-27 01:01:00,
2013-05-26 18:22:00,59.0,44.0,-100.00,SSE,147,12.0,21.0,58,0.00,,,0.00,537.000000,,2013-05-27 01:22:00,
2013-05-26 18:32:00,59.0,44.0,-100.00,SSE,147,12.0,21.0,58,0.00,,,0.00,537.000000,,2013-05-27 01:32:00,
2013-05-26 18:42:00,59.0,44.0,-100.00,SSE,147,12.0,21.0,58,0.00,,,0.00,537.000000,,2013-05-27 01:42:00,
2013-05-26 18:52:00,59.0,44.0,-100.00,SSE,147,12.0,21.0,58,0.00,,,0.00,537.000000,,2013-05-27 01:52:00,
2013-05-26 19:01:00,59.0,44.0,-100.00,SSE,147,12.0,21.0,58,0.00,,,0.00,537.000000,,2013-05-27 02:01:00,
2013-05-26 19:02:00,56.0,46.0,-100.00,SE,134,12.0,20.0,70,0.00,,,0.00,285.000000,,2013-05-27 02:02:00,
2013-05-26 19:22:00,56.0,46.0,-100.00,SE,134,12.0,20.0,70,0.00,,,0.00,285.000000,,2013-05-27 02:22:00,
2013-05-26 19:32:00,56.0,46.0,-100.00,SE,134,12.0,20.0,70,0.00,,,0.00,285.000000,,2013-05-27 02:32:00,
2013-05-26 19:42:00,56.0,46.0,-100.00,SE,134,12.0,20.0,70,0.00,,,0.00,285.000000,,2013-05-27 02:42:00,
2013-05-26 19:52:00,56.0,46.0,-100.00,SE,134,12.0,20.0,70,0.00,,,0.00,285.000000,,2013-05-27 02:52:00,
2013-05-26 20:02:00,52.0,46.0,-100.00,SE,140,9.0,19.0,81,0.00,,,0.00,56.000000,,2013-05-27 03:02:00,
2013-05-26 20:21:00,52.0,46.0,-100.00,SE,140,9.0,19.0,81,0.00,,,0.00,56.000000,,2013-05-27 03:21:00,
2013-05-26 20:33:00,52.0,46.0,-100.00,SE,140,9.0,19.0,81,0.00,,,0.00,56.000000,,2013-05-27 03:33:00,
2013-05-26 20:43:00,52.0,46.0,-100.00,SE,140,9.0,19.0,81,0.00,,,0.00,56.000000,,2013-05-27 03:43:00,
2013-05-26 20:53:00,52.0,46.0,-100.00,SE,140,9.0,19.0,81,0.00,,,0.00,56.000000,,2013-05-27 03:53:00,
2013-05-26 21:02:00,52.0,44.0,-100.00,SSE,165,9.0,19.0,73,0.00,,,0.00,0.000000,,2013-05-27 04:02:00,
2013-05-26 21:23:00,52.0,44.0,-100.00,SSE,165,9.0,19.0,73,0.00,,,0.00,0.000000,,2013-05-27 04:23:00,
2013-05-26 21:33:00,52.0,44.0,-100.00,SSE,165,9.0,19.0,73,0.00,,,0.00,0.000000,,2013-05-27 04:33:00,
2013-05-26 21:43:00,52.0,44.0,-100.00,SSE,165,9.0,19.0,73,0.00,,,0.00,0.000000,,2013-05-27 04:43:00,
2013-05-26 21:52:00,52.0,44.0,-100.00,SSE,165,9.0,19.0,73,0.00,,,0.00,0.000000,,2013-05-27 04:52:00,
2013-05-26 22:22:00,52.0,42.0,-100.00,SE,134,10.0,18.0,68,0.00,,,0.00,0.000000,,2013-05-27 05:22:00,
2013-05-26 22:32:00,52.0,42.0,-100.00,SE,134,10.0,18.0,68,0.00,,,0.00,0.000000,,2013-05-27 05:32:00,
2013-05-26 22:42:00,52.0,42.0,-100.00,SE,134,10.0,18.0,68,0.00,,,0.00,0.000000,,2013-05-27 05:42:00,
2013-05-26 22:52:00,52.0,42.0,-100.00,SE,134,10.0,18.0,68,0.00,,,0.00,0.000000,,2013-05-27 05:52:00,
2013-05-26 23:01:00,52.0,42.0,-100.00,SE,134,10.0,18.0,68,0.00,,,0.00,0.000000,,2013-05-27 06:01:00,
2013-05-26 23:22:00,52.0,39.0,-100.00,SE,127,10.0,16.0,62,0.00,,,0.00,0.000000,,2013-05-27 06:22:00,
2013-05-26 23:32:00,52.0,39.0,-100.00,SE,127,10.0,16.0,62,0.00,,,0.00,0.000000,,2013-05-27 06:32:00,
2013-05-26 23:42:00,52.0,39.0,-100.00,SE,127,10.0,16.0,62,0.00,,,0.00,0.000000,,2013-05-27 06:42:00,
2013-05-26 23:52:00,52.0,39.0,-100.00,SE,127,10.0,16.0,62,0.00,,,0.00,0.000000,,2013-05-27 06:52:00,